sensor_id;sensor_type;location;lat;lon;timestamp;P1;durP1;ratioP1;P2;durP2;ratioP2
25123;SDS011;13104;51.030;4.686;2022-10-26T00:02:19;10.13;;;3.30;;
25123;SDS011;13104;51.030;4.686;2022-10-26T00:04:45;11.63;;;3.70;;
25123;SDS011;13104;51.030;4.686;2022-10-26T00:07:11;7.47;;;3.17;;
25123;SDS011;13104;51.030;4.686;2022-10-26T00:09:37;11.70;;;3.60;;
25123;SDS011;13104;51.030;4.686;2022-10-26T00:12:03;11.85;;;3.92;;
25123;SDS011;13104;51.030;4.686;2022-10-26T00:14:29;11.13;;;3.85;;
25123;SDS011;13104;51.030;4.686;2022-10-26T00:16:55;7.32;;;3.30;;
25123;SDS011;13104;51.030;4.686;2022-10-26T00:19:21;10.98;;;3.78;;
25123;SDS011;13104;51.030;4.686;2022-10-26T00:21:48;11.82;;;3.65;;
25123;SDS011;13104;51.030;4.686;2022-10-26T00:24:14;8.38;;;3.63;;
25123;SDS011;13104;51.030;4.686;2022-10-26T00:26:40;11.05;;;4.05;;
25123;SDS011;13104;51.030;4.686;2022-10-26T00:29:07;10.80;;;3.38;;
25123;SDS011;13104;51.030;4.686;2022-10-26T00:31:33;12.10;;;3.50;;
25123;SDS011;13104;51.030;4.686;2022-10-26T00:33:59;9.38;;;3.80;;
25123;SDS011;13104;51.030;4.686;2022-10-26T00:36:25;8.52;;;3.05;;
25123;SDS011;13104;51.030;4.686;2022-10-26T00:38:52;9.73;;;3.50;;
25123;SDS011;13104;51.030;4.686;2022-10-26T00:41:20;8.48;;;3.17;;
25123;SDS011;13104;51.030;4.686;2022-10-26T00:43:47;13.95;;;2.95;;
25123;SDS011;13104;51.030;4.686;2022-10-26T00:48:56;8.02;;;3.50;;
25123;SDS011;13104;51.030;4.686;2022-10-26T00:51:24;9.65;;;3.40;;
25123;SDS011;13104;51.030;4.686;2022-10-26T00:53:52;11.00;;;2.90;;
25123;SDS011;13104;51.030;4.686;2022-10-26T00:56:19;9.18;;;3.15;;
25123;SDS011;13104;51.030;4.686;2022-10-26T00:58:45;8.77;;;3.65;;
25123;SDS011;13104;51.030;4.686;2022-10-26T01:01:11;11.65;;;3.50;;
25123;SDS011;13104;51.030;4.686;2022-10-26T01:03:37;17.00;;;3.15;;
25123;SDS011;13104;51.030;4.686;2022-10-26T01:06:04;10.70;;;3.15;;
25123;SDS011;13104;51.030;4.686;2022-10-26T01:08:30;7.85;;;2.78;;
25123;SDS011;13104;51.030;4.686;2022-10-26T01:10:57;8.40;;;2.80;;
25123;SDS011;13104;51.030;4.686;2022-10-26T01:13:23;7.82;;;3.10;;
25123;SDS011;13104;51.030;4.686;2022-10-26T01:16:10;10.80;;;2.72;;
25123;SDS011;13104;51.030;4.686;2022-10-26T01:18:44;8.55;;;2.60;;
25123;SDS011;13104;51.030;4.686;2022-10-26T01:23:49;7.85;;;2.78;;
25123;SDS011;13104;51.030;4.686;2022-10-26T01:26:29;10.43;;;2.80;;
25123;SDS011;13104;51.030;4.686;2022-10-26T01:29:09;19.55;;;3.17;;
25123;SDS011;13104;51.030;4.686;2022-10-26T01:31:39;6.57;;;2.20;;
25123;SDS011;13104;51.030;4.686;2022-10-26T01:34:19;9.60;;;2.55;;
25123;SDS011;13104;51.030;4.686;2022-10-26T01:36:56;10.73;;;2.22;;
25123;SDS011;13104;51.030;4.686;2022-10-26T01:42:06;7.40;;;2.30;;
25123;SDS011;13104;51.030;4.686;2022-10-26T01:44:35;5.40;;;2.28;;
25123;SDS011;13104;51.030;4.686;2022-10-26T01:47:06;13.70;;;2.92;;
25123;SDS011;13104;51.030;4.686;2022-10-26T01:49:36;8.13;;;2.28;;
25123;SDS011;13104;51.030;4.686;2022-10-26T01:52:03;6.85;;;2.30;;
25123;SDS011;13104;51.030;4.686;2022-10-26T01:54:30;6.72;;;2.58;;
25123;SDS011;13104;51.030;4.686;2022-10-26T01:56:58;11.13;;;2.63;;
25123;SDS011;13104;51.030;4.686;2022-10-26T02:07:06;10.95;;;2.33;;
25123;SDS011;13104;51.030;4.686;2022-10-26T02:12:06;13.35;;;2.67;;
25123;SDS011;13104;51.030;4.686;2022-10-26T02:17:08;9.68;;;2.25;;
25123;SDS011;13104;51.030;4.686;2022-10-26T02:19:41;9.57;;;2.15;;
25123;SDS011;13104;51.030;4.686;2022-10-26T02:22:28;6.28;;;2.28;;
25123;SDS011;13104;51.030;4.686;2022-10-26T02:24:55;7.43;;;2.35;;
25123;SDS011;13104;51.030;4.686;2022-10-26T02:27:27;7.75;;;2.47;;
25123;SDS011;13104;51.030;4.686;2022-10-26T02:29:55;10.98;;;2.40;;
25123;SDS011;13104;51.030;4.686;2022-10-26T02:32:22;4.45;;;2.10;;
25123;SDS011;13104;51.030;4.686;2022-10-26T02:34:50;7.35;;;2.28;;
25123;SDS011;13104;51.030;4.686;2022-10-26T02:37:19;7.63;;;1.92;;
25123;SDS011;13104;51.030;4.686;2022-10-26T02:39:47;5.63;;;2.30;;
25123;SDS011;13104;51.030;4.686;2022-10-26T02:42:14;6.15;;;2.30;;
25123;SDS011;13104;51.030;4.686;2022-10-26T02:44:48;3.97;;;2.00;;
25123;SDS011;13104;51.030;4.686;2022-10-26T02:47:15;5.18;;;1.67;;
25123;SDS011;13104;51.030;4.686;2022-10-26T02:49:42;10.35;;;2.47;;
25123;SDS011;13104;51.030;4.686;2022-10-26T02:52:16;10.15;;;2.30;;
25123;SDS011;13104;51.030;4.686;2022-10-26T02:54:47;7.20;;;2.60;;
25123;SDS011;13104;51.030;4.686;2022-10-26T02:59:45;8.52;;;2.45;;
25123;SDS011;13104;51.030;4.686;2022-10-26T03:02:13;6.63;;;2.40;;
25123;SDS011;13104;51.030;4.686;2022-10-26T03:04:40;8.80;;;2.45;;
25123;SDS011;13104;51.030;4.686;2022-10-26T03:07:06;9.02;;;2.47;;
25123;SDS011;13104;51.030;4.686;2022-10-26T03:09:33;9.52;;;2.35;;
25123;SDS011;13104;51.030;4.686;2022-10-26T03:11:59;6.05;;;2.20;;
25123;SDS011;13104;51.030;4.686;2022-10-26T03:14:25;9.13;;;2.53;;
25123;SDS011;13104;51.030;4.686;2022-10-26T03:16:52;7.88;;;2.15;;
25123;SDS011;13104;51.030;4.686;2022-10-26T03:19:18;8.45;;;2.47;;
25123;SDS011;13104;51.030;4.686;2022-10-26T03:21:44;8.35;;;2.50;;
25123;SDS011;13104;51.030;4.686;2022-10-26T03:24:11;8.07;;;2.60;;
25123;SDS011;13104;51.030;4.686;2022-10-26T03:26:37;6.85;;;2.22;;
25123;SDS011;13104;51.030;4.686;2022-10-26T03:29:03;5.07;;;2.33;;
25123;SDS011;13104;51.030;4.686;2022-10-26T03:31:30;8.43;;;2.58;;
25123;SDS011;13104;51.030;4.686;2022-10-26T03:34:01;7.68;;;2.35;;
25123;SDS011;13104;51.030;4.686;2022-10-26T03:36:28;8.55;;;2.67;;
25123;SDS011;13104;51.030;4.686;2022-10-26T03:38:54;13.52;;;2.50;;
25123;SDS011;13104;51.030;4.686;2022-10-26T03:41:20;7.32;;;2.42;;
25123;SDS011;13104;51.030;4.686;2022-10-26T03:43:46;8.82;;;2.33;;
25123;SDS011;13104;51.030;4.686;2022-10-26T03:46:13;8.05;;;1.88;;
25123;SDS011;13104;51.030;4.686;2022-10-26T03:48:39;8.00;;;2.17;;
25123;SDS011;13104;51.030;4.686;2022-10-26T03:51:07;6.28;;;2.55;;
25123;SDS011;13104;51.030;4.686;2022-10-26T03:53:33;6.63;;;2.65;;
25123;SDS011;13104;51.030;4.686;2022-10-26T03:55:59;4.88;;;2.58;;
25123;SDS011;13104;51.030;4.686;2022-10-26T03:58:26;10.65;;;2.63;;
25123;SDS011;13104;51.030;4.686;2022-10-26T04:00:52;8.88;;;2.42;;
25123;SDS011;13104;51.030;4.686;2022-10-26T04:03:21;7.93;;;2.75;;
25123;SDS011;13104;51.030;4.686;2022-10-26T04:05:47;7.63;;;2.30;;
25123;SDS011;13104;51.030;4.686;2022-10-26T04:08:14;8.55;;;2.38;;
25123;SDS011;13104;51.030;4.686;2022-10-26T04:10:40;15.65;;;2.95;;
25123;SDS011;13104;51.030;4.686;2022-10-26T04:13:07;6.30;;;2.42;;
25123;SDS011;13104;51.030;4.686;2022-10-26T04:15:35;9.27;;;2.80;;
25123;SDS011;13104;51.030;4.686;2022-10-26T04:18:01;8.48;;;2.30;;
25123;SDS011;13104;51.030;4.686;2022-10-26T04:20:28;6.57;;;2.50;;
25123;SDS011;13104;51.030;4.686;2022-10-26T04:22:58;7.50;;;2.55;;
25123;SDS011;13104;51.030;4.686;2022-10-26T04:25:25;9.30;;;2.47;;
25123;SDS011;13104;51.030;4.686;2022-10-26T04:27:51;6.57;;;2.65;;
25123;SDS011;13104;51.030;4.686;2022-10-26T04:30:18;7.45;;;2.45;;
25123;SDS011;13104;51.030;4.686;2022-10-26T04:32:44;9.25;;;2.38;;
25123;SDS011;13104;51.030;4.686;2022-10-26T04:35:11;4.35;;;2.10;;
25123;SDS011;13104;51.030;4.686;2022-10-26T04:37:37;6.90;;;2.20;;
25123;SDS011;13104;51.030;4.686;2022-10-26T04:40:04;5.85;;;2.33;;
25123;SDS011;13104;51.030;4.686;2022-10-26T04:42:30;4.68;;;2.00;;
25123;SDS011;13104;51.030;4.686;2022-10-26T04:44:58;13.38;;;2.88;;
25123;SDS011;13104;51.030;4.686;2022-10-26T04:47:24;10.75;;;2.30;;
25123;SDS011;13104;51.030;4.686;2022-10-26T04:49:51;5.78;;;2.33;;
25123;SDS011;13104;51.030;4.686;2022-10-26T04:52:17;5.05;;;2.13;;
25123;SDS011;13104;51.030;4.686;2022-10-26T04:54:44;5.68;;;2.00;;
25123;SDS011;13104;51.030;4.686;2022-10-26T04:57:10;9.98;;;2.00;;
25123;SDS011;13104;51.030;4.686;2022-10-26T04:59:36;7.22;;;2.10;;
25123;SDS011;13104;51.030;4.686;2022-10-26T05:02:03;6.07;;;2.10;;
25123;SDS011;13104;51.030;4.686;2022-10-26T05:04:29;6.50;;;1.85;;
25123;SDS011;13104;51.030;4.686;2022-10-26T05:06:55;11.68;;;1.90;;
25123;SDS011;13104;51.030;4.686;2022-10-26T05:09:22;5.90;;;1.70;;
25123;SDS011;13104;51.030;4.686;2022-10-26T05:11:48;8.30;;;1.70;;
25123;SDS011;13104;51.030;4.686;2022-10-26T05:14:15;6.15;;;1.70;;
25123;SDS011;13104;51.030;4.686;2022-10-26T05:16:41;4.82;;;1.65;;
25123;SDS011;13104;51.030;4.686;2022-10-26T05:19:09;5.80;;;1.73;;
25123;SDS011;13104;51.030;4.686;2022-10-26T05:21:35;7.85;;;1.85;;
25123;SDS011;13104;51.030;4.686;2022-10-26T05:24:01;2.63;;;1.50;;
25123;SDS011;13104;51.030;4.686;2022-10-26T05:26:28;4.60;;;1.67;;
25123;SDS011;13104;51.030;4.686;2022-10-26T05:28:54;6.57;;;1.58;;
25123;SDS011;13104;51.030;4.686;2022-10-26T05:31:21;7.07;;;1.70;;
25123;SDS011;13104;51.030;4.686;2022-10-26T05:33:47;4.20;;;1.65;;
25123;SDS011;13104;51.030;4.686;2022-10-26T05:36:15;4.90;;;1.50;;
25123;SDS011;13104;51.030;4.686;2022-10-26T05:38:41;4.70;;;1.67;;
25123;SDS011;13104;51.030;4.686;2022-10-26T05:41:10;6.82;;;1.67;;
25123;SDS011;13104;51.030;4.686;2022-10-26T05:43:36;6.10;;;1.63;;
25123;SDS011;13104;51.030;4.686;2022-10-26T05:46:03;5.22;;;1.60;;
25123;SDS011;13104;51.030;4.686;2022-10-26T05:48:29;3.47;;;1.77;;
25123;SDS011;13104;51.030;4.686;2022-10-26T05:51:00;5.25;;;1.65;;
25123;SDS011;13104;51.030;4.686;2022-10-26T05:53:27;8.20;;;2.10;;
25123;SDS011;13104;51.030;4.686;2022-10-26T05:55:54;5.20;;;1.75;;
25123;SDS011;13104;51.030;4.686;2022-10-26T05:58:20;7.97;;;2.13;;
25123;SDS011;13104;51.030;4.686;2022-10-26T06:05:56;9.40;;;2.20;;
25123;SDS011;13104;51.030;4.686;2022-10-26T06:08:23;9.07;;;1.80;;
25123;SDS011;13104;51.030;4.686;2022-10-26T06:10:50;7.63;;;1.55;;
25123;SDS011;13104;51.030;4.686;2022-10-26T06:13:18;5.45;;;1.80;;
25123;SDS011;13104;51.030;4.686;2022-10-26T06:18:45;6.47;;;2.00;;
25123;SDS011;13104;51.030;4.686;2022-10-26T06:23:52;5.55;;;2.00;;
25123;SDS011;13104;51.030;4.686;2022-10-26T06:31:23;7.60;;;2.20;;
25123;SDS011;13104;51.030;4.686;2022-10-26T06:33:50;3.97;;;1.95;;
25123;SDS011;13104;51.030;4.686;2022-10-26T06:38:46;10.07;;;2.60;;
25123;SDS011;13104;51.030;4.686;2022-10-26T06:41:15;7.53;;;2.00;;
25123;SDS011;13104;51.030;4.686;2022-10-26T06:43:44;5.90;;;2.28;;
25123;SDS011;13104;51.030;4.686;2022-10-26T06:49:05;5.28;;;1.90;;
25123;SDS011;13104;51.030;4.686;2022-10-26T06:51:35;4.82;;;2.10;;
25123;SDS011;13104;51.030;4.686;2022-10-26T06:56:42;5.32;;;2.05;;
25123;SDS011;13104;51.030;4.686;2022-10-26T06:59:13;6.40;;;1.85;;
25123;SDS011;13104;51.030;4.686;2022-10-26T07:01:41;8.68;;;1.95;;
25123;SDS011;13104;51.030;4.686;2022-10-26T07:04:08;13.02;;;2.15;;
25123;SDS011;13104;51.030;4.686;2022-10-26T07:06:34;6.15;;;1.92;;
25123;SDS011;13104;51.030;4.686;2022-10-26T07:09:00;6.45;;;1.80;;
25123;SDS011;13104;51.030;4.686;2022-10-26T07:11:27;5.95;;;2.17;;
25123;SDS011;13104;51.030;4.686;2022-10-26T07:13:53;6.35;;;2.08;;
25123;SDS011;13104;51.030;4.686;2022-10-26T07:16:19;11.40;;;2.47;;
25123;SDS011;13104;51.030;4.686;2022-10-26T07:18:47;6.57;;;2.30;;
25123;SDS011;13104;51.030;4.686;2022-10-26T07:21:13;6.35;;;2.10;;
25123;SDS011;13104;51.030;4.686;2022-10-26T07:23:39;7.40;;;2.03;;
25123;SDS011;13104;51.030;4.686;2022-10-26T07:26:06;5.35;;;2.17;;
25123;SDS011;13104;51.030;4.686;2022-10-26T07:28:35;8.70;;;2.25;;
25123;SDS011;13104;51.030;4.686;2022-10-26T07:31:01;6.88;;;2.28;;
25123;SDS011;13104;51.030;4.686;2022-10-26T07:33:32;6.28;;;2.58;;
25123;SDS011;13104;51.030;4.686;2022-10-26T07:35:58;8.52;;;2.78;;
25123;SDS011;13104;51.030;4.686;2022-10-26T07:38:25;8.60;;;2.72;;
25123;SDS011;13104;51.030;4.686;2022-10-26T07:40:51;7.10;;;2.92;;
25123;SDS011;13104;51.030;4.686;2022-10-26T07:43:18;6.82;;;2.38;;
25123;SDS011;13104;51.030;4.686;2022-10-26T07:45:47;7.82;;;2.58;;
25123;SDS011;13104;51.030;4.686;2022-10-26T07:48:14;6.03;;;2.45;;
25123;SDS011;13104;51.030;4.686;2022-10-26T07:50:41;9.00;;;2.72;;
25123;SDS011;13104;51.030;4.686;2022-10-26T07:53:07;6.70;;;2.42;;
25123;SDS011;13104;51.030;4.686;2022-10-26T07:55:33;8.50;;;2.40;;
25123;SDS011;13104;51.030;4.686;2022-10-26T07:57:59;16.63;;;2.72;;
25123;SDS011;13104;51.030;4.686;2022-10-26T08:00:25;6.90;;;2.42;;
25123;SDS011;13104;51.030;4.686;2022-10-26T08:02:53;11.02;;;2.83;;
25123;SDS011;13104;51.030;4.686;2022-10-26T08:05:19;13.00;;;3.08;;
25123;SDS011;13104;51.030;4.686;2022-10-26T08:07:45;9.43;;;2.80;;
25123;SDS011;13104;51.030;4.686;2022-10-26T08:10:12;10.05;;;2.70;;
25123;SDS011;13104;51.030;4.686;2022-10-26T08:12:38;7.97;;;2.42;;
25123;SDS011;13104;51.030;4.686;2022-10-26T08:15:04;7.70;;;2.50;;
25123;SDS011;13104;51.030;4.686;2022-10-26T08:17:31;12.55;;;2.30;;
25123;SDS011;13104;51.030;4.686;2022-10-26T08:19:57;10.57;;;2.63;;
25123;SDS011;13104;51.030;4.686;2022-10-26T08:22:23;8.93;;;2.60;;
25123;SDS011;13104;51.030;4.686;2022-10-26T08:24:50;9.60;;;2.70;;
25123;SDS011;13104;51.030;4.686;2022-10-26T08:27:16;5.85;;;2.40;;
25123;SDS011;13104;51.030;4.686;2022-10-26T08:29:42;4.78;;;2.70;;
25123;SDS011;13104;51.030;4.686;2022-10-26T08:32:08;11.70;;;2.60;;
25123;SDS011;13104;51.030;4.686;2022-10-26T08:34:34;9.25;;;2.63;;
25123;SDS011;13104;51.030;4.686;2022-10-26T08:37:00;12.10;;;3.08;;
25123;SDS011;13104;51.030;4.686;2022-10-26T08:39:26;12.07;;;2.83;;
25123;SDS011;13104;51.030;4.686;2022-10-26T08:42:01;9.10;;;2.30;;
25123;SDS011;13104;51.030;4.686;2022-10-26T08:44:30;9.90;;;2.80;;
25123;SDS011;13104;51.030;4.686;2022-10-26T08:46:59;8.75;;;2.35;;
25123;SDS011;13104;51.030;4.686;2022-10-26T08:49:27;5.22;;;2.08;;
25123;SDS011;13104;51.030;4.686;2022-10-26T08:51:56;11.95;;;2.63;;
25123;SDS011;13104;51.030;4.686;2022-10-26T08:56:56;8.25;;;2.35;;
25123;SDS011;13104;51.030;4.686;2022-10-26T08:59:29;4.43;;;2.00;;
25123;SDS011;13104;51.030;4.686;2022-10-26T09:01:56;7.20;;;2.22;;
25123;SDS011;13104;51.030;4.686;2022-10-26T09:04:25;12.95;;;2.13;;
25123;SDS011;13104;51.030;4.686;2022-10-26T09:07:52;9.38;;;2.30;;
25123;SDS011;13104;51.030;4.686;2022-10-26T09:09:59;9.85;;;2.30;;
25123;SDS011;13104;51.030;4.686;2022-10-26T09:12:40;5.78;;;1.95;;
25123;SDS011;13104;51.030;4.686;2022-10-26T09:20:33;8.45;;;2.30;;
25123;SDS011;13104;51.030;4.686;2022-10-26T09:25:29;9.05;;;2.00;;
25123;SDS011;13104;51.030;4.686;2022-10-26T09:27:57;11.88;;;2.33;;
25123;SDS011;13104;51.030;4.686;2022-10-26T09:30:25;5.90;;;1.80;;
25123;SDS011;13104;51.030;4.686;2022-10-26T09:32:54;8.38;;;2.13;;
25123;SDS011;13104;51.030;4.686;2022-10-26T09:35:21;7.68;;;2.58;;
25123;SDS011;13104;51.030;4.686;2022-10-26T09:37:55;11.88;;;2.20;;
25123;SDS011;13104;51.030;4.686;2022-10-26T09:42:56;8.80;;;2.28;;
25123;SDS011;13104;51.030;4.686;2022-10-26T09:45:31;8.38;;;2.00;;
25123;SDS011;13104;51.030;4.686;2022-10-26T09:48:04;4.97;;;1.30;;
25123;SDS011;13104;51.030;4.686;2022-10-26T09:50:33;6.20;;;1.90;;
25123;SDS011;13104;51.030;4.686;2022-10-26T09:53:00;6.40;;;1.90;;
25123;SDS011;13104;51.030;4.686;2022-10-26T09:55:26;7.03;;;2.00;;
25123;SDS011;13104;51.030;4.686;2022-10-26T09:57:53;7.60;;;1.60;;
25123;SDS011;13104;51.030;4.686;2022-10-26T10:00:21;6.90;;;1.92;;
25123;SDS011;13104;51.030;4.686;2022-10-26T10:02:54;5.22;;;1.70;;
25123;SDS011;13104;51.030;4.686;2022-10-26T10:10:35;8.25;;;2.17;;
25123;SDS011;13104;51.030;4.686;2022-10-26T10:13:14;9.90;;;1.75;;
25123;SDS011;13104;51.030;4.686;2022-10-26T10:15:49;8.27;;;1.90;;
25123;SDS011;13104;51.030;4.686;2022-10-26T10:18:19;7.05;;;1.80;;
25123;SDS011;13104;51.030;4.686;2022-10-26T10:20:50;9.05;;;1.60;;
25123;SDS011;13104;51.030;4.686;2022-10-26T10:23:25;9.55;;;2.03;;
25123;SDS011;13104;51.030;4.686;2022-10-26T10:25:59;5.20;;;1.50;;
25123;SDS011;13104;51.030;4.686;2022-10-26T10:28:26;8.48;;;1.80;;
25123;SDS011;13104;51.030;4.686;2022-10-26T10:30:53;7.18;;;1.70;;
25123;SDS011;13104;51.030;4.686;2022-10-26T10:33:21;6.53;;;1.60;;
25123;SDS011;13104;51.030;4.686;2022-10-26T10:35:50;5.40;;;1.55;;
25123;SDS011;13104;51.030;4.686;2022-10-26T10:38:18;7.72;;;1.70;;
25123;SDS011;13104;51.030;4.686;2022-10-26T10:40:52;6.50;;;1.92;;
25123;SDS011;13104;51.030;4.686;2022-10-26T10:45:46;5.35;;;1.40;;
25123;SDS011;13104;51.030;4.686;2022-10-26T10:48:19;8.30;;;1.92;;
25123;SDS011;13104;51.030;4.686;2022-10-26T10:50:53;4.85;;;1.48;;
25123;SDS011;13104;51.030;4.686;2022-10-26T10:53:36;5.15;;;1.55;;
25123;SDS011;13104;51.030;4.686;2022-10-26T10:56:15;6.40;;;1.58;;
25123;SDS011;13104;51.030;4.686;2022-10-26T11:01:31;6.97;;;1.63;;
25123;SDS011;13104;51.030;4.686;2022-10-26T11:04:13;12.25;;;1.83;;
25123;SDS011;13104;51.030;4.686;2022-10-26T11:06:41;5.23;;;1.60;;
25123;SDS011;13104;51.030;4.686;2022-10-26T11:09:12;5.20;;;1.38;;
25123;SDS011;13104;51.030;4.686;2022-10-26T11:11:46;7.70;;;1.60;;
25123;SDS011;13104;51.030;4.686;2022-10-26T11:14:14;5.53;;;1.63;;
25123;SDS011;13104;51.030;4.686;2022-10-26T11:16:46;6.82;;;1.45;;
25123;SDS011;13104;51.030;4.686;2022-10-26T11:19:18;3.30;;;1.25;;
25123;SDS011;13104;51.030;4.686;2022-10-26T11:21:46;13.00;;;1.95;;
25123;SDS011;13104;51.030;4.686;2022-10-26T11:24:28;5.85;;;1.50;;
25123;SDS011;13104;51.030;4.686;2022-10-26T11:27:02;8.40;;;1.60;;
25123;SDS011;13104;51.030;4.686;2022-10-26T11:29:32;4.25;;;1.33;;
25123;SDS011;13104;51.030;4.686;2022-10-26T11:32:06;5.40;;;1.50;;
25123;SDS011;13104;51.030;4.686;2022-10-26T11:37:07;5.75;;;1.75;;
25123;SDS011;13104;51.030;4.686;2022-10-26T11:39:37;8.65;;;1.30;;
25123;SDS011;13104;51.030;4.686;2022-10-26T11:42:14;9.45;;;1.58;;
25123;SDS011;13104;51.030;4.686;2022-10-26T11:47:17;6.22;;;1.60;;
25123;SDS011;13104;51.030;4.686;2022-10-26T11:52:12;4.93;;;1.60;;
25123;SDS011;13104;51.030;4.686;2022-10-26T11:55:00;6.05;;;1.73;;
25123;SDS011;13104;51.030;4.686;2022-10-26T11:57:29;5.32;;;1.60;;
25123;SDS011;13104;51.030;4.686;2022-10-26T12:00:01;5.07;;;1.80;;
25123;SDS011;13104;51.030;4.686;2022-10-26T12:02:27;4.97;;;1.60;;
25123;SDS011;13104;51.030;4.686;2022-10-26T12:05:05;6.07;;;1.50;;
25123;SDS011;13104;51.030;4.686;2022-10-26T12:07:32;6.47;;;1.23;;
25123;SDS011;13104;51.030;4.686;2022-10-26T12:09:59;7.65;;;1.80;;
25123;SDS011;13104;51.030;4.686;2022-10-26T12:12:33;7.47;;;1.45;;
25123;SDS011;13104;51.030;4.686;2022-10-26T12:17:54;9.10;;;1.80;;
25123;SDS011;13104;51.030;4.686;2022-10-26T12:22:47;6.93;;;1.38;;
25123;SDS011;13104;51.030;4.686;2022-10-26T12:37:55;6.78;;;1.60;;
25123;SDS011;13104;51.030;4.686;2022-10-26T12:40:41;4.32;;;1.42;;
25123;SDS011;13104;51.030;4.686;2022-10-26T12:45:40;7.32;;;1.67;;
25123;SDS011;13104;51.030;4.686;2022-10-26T12:48:49;7.20;;;1.50;;
25123;SDS011;13104;51.030;4.686;2022-10-26T12:50:55;5.50;;;1.40;;
25123;SDS011;13104;51.030;4.686;2022-10-26T12:53:41;9.00;;;1.65;;
25123;SDS011;13104;51.030;4.686;2022-10-26T12:56:08;4.03;;;1.35;;
25123;SDS011;13104;51.030;4.686;2022-10-26T13:08:39;6.75;;;1.80;;
25123;SDS011;13104;51.030;4.686;2022-10-26T13:11:12;6.70;;;1.40;;
25123;SDS011;13104;51.030;4.686;2022-10-26T13:13:39;6.88;;;1.50;;
25123;SDS011;13104;51.030;4.686;2022-10-26T13:16:09;9.48;;;1.52;;
25123;SDS011;13104;51.030;4.686;2022-10-26T13:18:44;6.82;;;1.35;;
25123;SDS011;13104;51.030;4.686;2022-10-26T13:21:15;7.15;;;1.33;;
25123;SDS011;13104;51.030;4.686;2022-10-26T13:26:22;8.98;;;1.50;;
25123;SDS011;13104;51.030;4.686;2022-10-26T13:28:49;6.47;;;1.23;;
25123;SDS011;13104;51.030;4.686;2022-10-26T13:31:51;4.22;;;1.20;;
25123;SDS011;13104;51.030;4.686;2022-10-26T13:34:14;6.68;;;1.40;;
25123;SDS011;13104;51.030;4.686;2022-10-26T13:39:09;7.38;;;1.40;;
25123;SDS011;13104;51.030;4.686;2022-10-26T13:41:38;6.65;;;1.40;;
25123;SDS011;13104;51.030;4.686;2022-10-26T13:44:06;12.10;;;1.50;;
25123;SDS011;13104;51.030;4.686;2022-10-26T13:46:36;9.23;;;1.42;;
25123;SDS011;13104;51.030;4.686;2022-10-26T13:49:20;7.57;;;1.30;;
25123;SDS011;13104;51.030;4.686;2022-10-26T13:51:48;4.07;;;1.10;;
25123;SDS011;13104;51.030;4.686;2022-10-26T13:54:18;6.47;;;1.52;;
25123;SDS011;13104;51.030;4.686;2022-10-26T13:59:31;10.73;;;1.50;;
25123;SDS011;13104;51.030;4.686;2022-10-26T14:02:32;5.47;;;1.20;;
25123;SDS011;13104;51.030;4.686;2022-10-26T14:05:02;4.78;;;1.30;;
25123;SDS011;13104;51.030;4.686;2022-10-26T14:10:19;8.60;;;1.40;;
25123;SDS011;13104;51.030;4.686;2022-10-26T14:12:48;6.63;;;1.63;;
25123;SDS011;13104;51.030;4.686;2022-10-26T14:15:15;6.15;;;1.40;;
25123;SDS011;13104;51.030;4.686;2022-10-26T14:17:41;4.28;;;1.40;;
25123;SDS011;13104;51.030;4.686;2022-10-26T14:20:11;5.70;;;1.38;;
25123;SDS011;13104;51.030;4.686;2022-10-26T14:22:42;4.72;;;1.25;;
25123;SDS011;13104;51.030;4.686;2022-10-26T14:25:29;8.27;;;1.40;;
25123;SDS011;13104;51.030;4.686;2022-10-26T14:27:55;5.30;;;1.20;;
25123;SDS011;13104;51.030;4.686;2022-10-26T14:30:23;6.82;;;1.30;;
25123;SDS011;13104;51.030;4.686;2022-10-26T14:32:50;5.03;;;1.38;;
25123;SDS011;13104;51.030;4.686;2022-10-26T14:35:16;8.43;;;1.40;;
25123;SDS011;13104;51.030;4.686;2022-10-26T14:37:44;8.70;;;1.70;;
25123;SDS011;13104;51.030;4.686;2022-10-26T14:40:30;8.18;;;1.55;;
25123;SDS011;13104;51.030;4.686;2022-10-26T14:42:59;4.75;;;1.35;;
25123;SDS011;13104;51.030;4.686;2022-10-26T14:47:52;6.20;;;1.40;;
25123;SDS011;13104;51.030;4.686;2022-10-26T14:50:19;5.80;;;1.40;;
25123;SDS011;13104;51.030;4.686;2022-10-26T14:52:52;6.13;;;1.50;;
25123;SDS011;13104;51.030;4.686;2022-10-26T14:55:19;7.68;;;1.38;;
25123;SDS011;13104;51.030;4.686;2022-10-26T14:57:47;7.80;;;1.38;;
25123;SDS011;13104;51.030;4.686;2022-10-26T15:00:17;7.13;;;1.30;;
25123;SDS011;13104;51.030;4.686;2022-10-26T15:02:45;5.75;;;1.20;;
25123;SDS011;13104;51.030;4.686;2022-10-26T15:05:28;6.90;;;1.38;;
25123;SDS011;13104;51.030;4.686;2022-10-26T15:07:56;6.47;;;1.30;;
25123;SDS011;13104;51.030;4.686;2022-10-26T15:13:14;7.07;;;1.42;;
25123;SDS011;13104;51.030;4.686;2022-10-26T15:15:43;6.88;;;1.40;;
25123;SDS011;13104;51.030;4.686;2022-10-26T15:18:43;6.28;;;1.20;;
25123;SDS011;13104;51.030;4.686;2022-10-26T15:21:02;7.43;;;1.58;;
25123;SDS011;13104;51.030;4.686;2022-10-26T15:23:31;5.75;;;1.10;;
25123;SDS011;13104;51.030;4.686;2022-10-26T15:25:58;4.18;;;1.02;;
25123;SDS011;13104;51.030;4.686;2022-10-26T15:28:37;7.70;;;1.30;;
25123;SDS011;13104;51.030;4.686;2022-10-26T15:33:39;4.97;;;1.20;;
25123;SDS011;13104;51.030;4.686;2022-10-26T15:36:16;4.00;;;1.30;;
25123;SDS011;13104;51.030;4.686;2022-10-26T15:38:43;7.32;;;1.27;;
25123;SDS011;13104;51.030;4.686;2022-10-26T15:41:26;5.93;;;1.52;;
25123;SDS011;13104;51.030;4.686;2022-10-26T15:43:53;4.57;;;1.20;;
25123;SDS011;13104;51.030;4.686;2022-10-26T15:46:23;6.95;;;1.33;;
25123;SDS011;13104;51.030;4.686;2022-10-26T15:48:57;7.07;;;1.38;;
25123;SDS011;13104;51.030;4.686;2022-10-26T15:51:24;3.65;;;1.10;;
25123;SDS011;13104;51.030;4.686;2022-10-26T15:53:52;9.35;;;1.65;;
25123;SDS011;13104;51.030;4.686;2022-10-26T15:56:19;4.78;;;1.60;;
25123;SDS011;13104;51.030;4.686;2022-10-26T15:58:46;10.77;;;1.50;;
25123;SDS011;13104;51.030;4.686;2022-10-26T16:01:16;6.40;;;1.50;;
25123;SDS011;13104;51.030;4.686;2022-10-26T16:03:42;8.50;;;1.80;;
25123;SDS011;13104;51.030;4.686;2022-10-26T16:06:11;8.45;;;1.60;;
25123;SDS011;13104;51.030;4.686;2022-10-26T16:08:38;8.43;;;2.00;;
25123;SDS011;13104;51.030;4.686;2022-10-26T16:11:05;4.03;;;1.50;;
25123;SDS011;13104;51.030;4.686;2022-10-26T16:13:31;8.40;;;1.80;;
25123;SDS011;13104;51.030;4.686;2022-10-26T16:15:57;11.18;;;2.10;;
25123;SDS011;13104;51.030;4.686;2022-10-26T16:18:23;7.18;;;1.63;;
25123;SDS011;13104;51.030;4.686;2022-10-26T16:20:49;7.88;;;1.80;;
25123;SDS011;13104;51.030;4.686;2022-10-26T16:23:15;6.97;;;2.03;;
25123;SDS011;13104;51.030;4.686;2022-10-26T16:25:42;7.13;;;1.63;;
25123;SDS011;13104;51.030;4.686;2022-10-26T16:28:10;8.57;;;1.77;;
25123;SDS011;13104;51.030;4.686;2022-10-26T16:30:36;6.35;;;1.60;;
25123;SDS011;13104;51.030;4.686;2022-10-26T16:33:02;8.98;;;1.80;;
25123;SDS011;13104;51.030;4.686;2022-10-26T16:35:28;9.40;;;1.67;;
25123;SDS011;13104;51.030;4.686;2022-10-26T16:37:55;5.68;;;1.40;;
25123;SDS011;13104;51.030;4.686;2022-10-26T16:40:21;5.80;;;1.90;;
25123;SDS011;13104;51.030;4.686;2022-10-26T16:42:47;8.10;;;1.70;;
25123;SDS011;13104;51.030;4.686;2022-10-26T16:45:13;8.27;;;1.77;;
25123;SDS011;13104;51.030;4.686;2022-10-26T16:47:40;11.82;;;2.40;;
25123;SDS011;13104;51.030;4.686;2022-10-26T16:50:07;12.13;;;1.92;;
25123;SDS011;13104;51.030;4.686;2022-10-26T16:52:33;5.97;;;1.80;;
25123;SDS011;13104;51.030;4.686;2022-10-26T16:54:59;6.43;;;1.50;;
25123;SDS011;13104;51.030;4.686;2022-10-26T16:57:25;6.60;;;2.03;;
25123;SDS011;13104;51.030;4.686;2022-10-26T16:59:52;5.03;;;1.85;;
25123;SDS011;13104;51.030;4.686;2022-10-26T17:02:18;6.68;;;1.95;;
25123;SDS011;13104;51.030;4.686;2022-10-26T17:04:44;5.97;;;1.67;;